sensor_id;sensor_type;location;lat;lon;timestamp;P1;durP1;ratioP1;P2;durP2;ratioP2
3941;SDS011;1985;48.592;8.850;2022-12-07T00:01:04;14.80;;;4.68;;
3941;SDS011;1985;48.592;8.850;2022-12-07T00:03:35;14.32;;;5.20;;
3941;SDS011;1985;48.592;8.850;2022-12-07T00:06:02;13.10;;;4.50;;
3941;SDS011;1985;48.592;8.850;2022-12-07T00:08:28;14.47;;;4.27;;
3941;SDS011;1985;48.592;8.850;2022-12-07T00:10:54;11.98;;;3.33;;
3941;SDS011;1985;48.592;8.850;2022-12-07T00:13:25;14.57;;;4.43;;
3941;SDS011;1985;48.592;8.850;2022-12-07T00:15:50;13.77;;;4.30;;
3941;SDS011;1985;48.592;8.850;2022-12-07T00:18:16;14.50;;;4.47;;
3941;SDS011;1985;48.592;8.850;2022-12-07T00:20:41;14.95;;;4.25;;
3941;SDS011;1985;48.592;8.850;2022-12-07T00:23:07;13.27;;;4.20;;
3941;SDS011;1985;48.592;8.850;2022-12-07T00:25:32;12.77;;;3.92;;
3941;SDS011;1985;48.592;8.850;2022-12-07T00:27:58;12.50;;;3.60;;
3941;SDS011;1985;48.592;8.850;2022-12-07T00:30:24;12.45;;;3.63;;
3941;SDS011;1985;48.592;8.850;2022-12-07T00:32:50;10.93;;;3.50;;
3941;SDS011;1985;48.592;8.850;2022-12-07T00:35:15;13.13;;;3.63;;
3941;SDS011;1985;48.592;8.850;2022-12-07T00:37:41;13.27;;;4.20;;
3941;SDS011;1985;48.592;8.850;2022-12-07T00:40:07;11.55;;;3.60;;
3941;SDS011;1985;48.592;8.850;2022-12-07T00:42:33;12.52;;;3.50;;
3941;SDS011;1985;48.592;8.850;2022-12-07T00:44:58;13.20;;;4.07;;
3941;SDS011;1985;48.592;8.850;2022-12-07T00:47:24;15.80;;;4.05;;
3941;SDS011;1985;48.592;8.850;2022-12-07T00:49:49;21.73;;;6.10;;
3941;SDS011;1985;48.592;8.850;2022-12-07T00:52:15;16.15;;;5.15;;
3941;SDS011;1985;48.592;8.850;2022-12-07T00:54:40;14.10;;;4.70;;
3941;SDS011;1985;48.592;8.850;2022-12-07T00:57:06;18.85;;;5.68;;
3941;SDS011;1985;48.592;8.850;2022-12-07T00:59:32;18.80;;;6.40;;
3941;SDS011;1985;48.592;8.850;2022-12-07T01:01:57;19.45;;;6.47;;
3941;SDS011;1985;48.592;8.850;2022-12-07T01:04:23;16.00;;;5.83;;
3941;SDS011;1985;48.592;8.850;2022-12-07T01:06:48;18.13;;;5.85;;
3941;SDS011;1985;48.592;8.850;2022-12-07T01:09:14;14.50;;;5.03;;
3941;SDS011;1985;48.592;8.850;2022-12-07T01:11:40;12.83;;;4.87;;
3941;SDS011;1985;48.592;8.850;2022-12-07T01:14:05;13.65;;;4.25;;
3941;SDS011;1985;48.592;8.850;2022-12-07T01:16:31;13.77;;;4.47;;
3941;SDS011;1985;48.592;8.850;2022-12-07T01:18:58;14.23;;;4.07;;
3941;SDS011;1985;48.592;8.850;2022-12-07T01:21:28;15.10;;;4.00;;
3941;SDS011;1985;48.592;8.850;2022-12-07T01:24:00;15.97;;;4.53;;
3941;SDS011;1985;48.592;8.850;2022-12-07T01:26:26;12.05;;;3.80;;
3941;SDS011;1985;48.592;8.850;2022-12-07T01:28:52;14.15;;;3.80;;
3941;SDS011;1985;48.592;8.850;2022-12-07T01:31:20;13.00;;;3.92;;
3941;SDS011;1985;48.592;8.850;2022-12-07T01:33:52;12.52;;;3.83;;
3941;SDS011;1985;48.592;8.850;2022-12-07T01:36:20;14.10;;;4.05;;
3941;SDS011;1985;48.592;8.850;2022-12-07T01:38:46;13.15;;;3.75;;
3941;SDS011;1985;48.592;8.850;2022-12-07T01:41:14;13.30;;;3.70;;
3941;SDS011;1985;48.592;8.850;2022-12-07T01:46:39;13.02;;;4.03;;
3941;SDS011;1985;48.592;8.850;2022-12-07T01:49:06;12.73;;;3.90;;
3941;SDS011;1985;48.592;8.850;2022-12-07T01:51:36;13.40;;;3.78;;
3941;SDS011;1985;48.592;8.850;2022-12-07T01:54:05;13.07;;;3.70;;
3941;SDS011;1985;48.592;8.850;2022-12-07T01:56:31;12.90;;;3.70;;
3941;SDS011;1985;48.592;8.850;2022-12-07T01:58:58;15.57;;;4.30;;
3941;SDS011;1985;48.592;8.850;2022-12-07T02:01:25;12.43;;;3.58;;
3941;SDS011;1985;48.592;8.850;2022-12-07T02:03:51;12.63;;;4.10;;
3941;SDS011;1985;48.592;8.850;2022-12-07T02:06:19;13.25;;;4.53;;
3941;SDS011;1985;48.592;8.850;2022-12-07T02:08:47;12.30;;;4.10;;
3941;SDS011;1985;48.592;8.850;2022-12-07T02:11:13;11.98;;;3.90;;
3941;SDS011;1985;48.592;8.850;2022-12-07T02:13:40;11.25;;;3.75;;
3941;SDS011;1985;48.592;8.850;2022-12-07T02:16:30;12.70;;;3.60;;
3941;SDS011;1985;48.592;8.850;2022-12-07T02:21:41;13.60;;;4.10;;
3941;SDS011;1985;48.592;8.850;2022-12-07T02:32:02;11.93;;;3.90;;
3941;SDS011;1985;48.592;8.850;2022-12-07T02:34:39;12.48;;;4.15;;
3941;SDS011;1985;48.592;8.850;2022-12-07T02:37:25;13.02;;;4.32;;
3941;SDS011;1985;48.592;8.850;2022-12-07T02:40:04;12.95;;;3.80;;
3941;SDS011;1985;48.592;8.850;2022-12-07T02:42:38;12.68;;;4.05;;
3941;SDS011;1985;48.592;8.850;2022-12-07T02:45:07;12.15;;;3.92;;
3941;SDS011;1985;48.592;8.850;2022-12-07T02:47:35;12.43;;;4.13;;
3941;SDS011;1985;48.592;8.850;2022-12-07T02:50:03;11.68;;;3.13;;
3941;SDS011;1985;48.592;8.850;2022-12-07T02:52:30;12.75;;;4.00;;
3941;SDS011;1985;48.592;8.850;2022-12-07T02:54:56;13.50;;;4.40;;
3941;SDS011;1985;48.592;8.850;2022-12-07T02:59:58;13.40;;;4.38;;
3941;SDS011;1985;48.592;8.850;2022-12-07T03:10:29;14.40;;;4.80;;
3941;SDS011;1985;48.592;8.850;2022-12-07T03:18:17;13.65;;;4.80;;
3941;SDS011;1985;48.592;8.850;2022-12-07T03:20:45;14.80;;;5.23;;
3941;SDS011;1985;48.592;8.850;2022-12-07T03:23:15;13.43;;;4.10;;
3941;SDS011;1985;48.592;8.850;2022-12-07T03:25:43;14.32;;;4.75;;
3941;SDS011;1985;48.592;8.850;2022-12-07T03:28:14;14.35;;;4.53;;
3941;SDS011;1985;48.592;8.850;2022-12-07T03:31:05;12.32;;;4.28;;
3941;SDS011;1985;48.592;8.850;2022-12-07T03:37:26;14.10;;;4.23;;
3941;SDS011;1985;48.592;8.850;2022-12-07T03:39:40;19.15;;;5.28;;
3941;SDS011;1985;48.592;8.850;2022-12-07T03:42:14;12.87;;;4.80;;
3941;SDS011;1985;48.592;8.850;2022-12-07T03:44:41;14.55;;;5.00;;
3941;SDS011;1985;48.592;8.850;2022-12-07T03:49:59;14.32;;;4.38;;
3941;SDS011;1985;48.592;8.850;2022-12-07T03:52:37;15.57;;;5.22;;
3941;SDS011;1985;48.592;8.850;2022-12-07T03:57:46;16.40;;;5.20;;
3941;SDS011;1985;48.592;8.850;2022-12-07T04:00:14;14.90;;;4.90;;
3941;SDS011;1985;48.592;8.850;2022-12-07T04:02:41;14.20;;;4.78;;
3941;SDS011;1985;48.592;8.850;2022-12-07T04:05:07;13.10;;;4.30;;
3941;SDS011;1985;48.592;8.850;2022-12-07T04:07:33;13.80;;;4.87;;
3941;SDS011;1985;48.592;8.850;2022-12-07T04:09:59;14.00;;;4.70;;
3941;SDS011;1985;48.592;8.850;2022-12-07T04:12:24;14.27;;;5.30;;
3941;SDS011;1985;48.592;8.850;2022-12-07T04:14:50;14.77;;;4.80;;
3941;SDS011;1985;48.592;8.850;2022-12-07T04:17:16;14.60;;;4.80;;
3941;SDS011;1985;48.592;8.850;2022-12-07T04:19:41;16.07;;;4.80;;
3941;SDS011;1985;48.592;8.850;2022-12-07T04:22:07;15.70;;;5.10;;
3941;SDS011;1985;48.592;8.850;2022-12-07T04:24:33;15.73;;;5.55;;
3941;SDS011;1985;48.592;8.850;2022-12-07T04:26:59;13.38;;;4.38;;
3941;SDS011;1985;48.592;8.850;2022-12-07T04:29:24;16.53;;;5.20;;
3941;SDS011;1985;48.592;8.850;2022-12-07T04:31:50;16.38;;;5.40;;
3941;SDS011;1985;48.592;8.850;2022-12-07T04:34:17;14.40;;;4.93;;
3941;SDS011;1985;48.592;8.850;2022-12-07T04:36:44;15.80;;;4.80;;
3941;SDS011;1985;48.592;8.850;2022-12-07T04:39:44;14.63;;;5.20;;
3941;SDS011;1985;48.592;8.850;2022-12-07T04:42:03;14.60;;;5.00;;
3941;SDS011;1985;48.592;8.850;2022-12-07T04:44:29;15.10;;;5.70;;
3941;SDS011;1985;48.592;8.850;2022-12-07T04:46:55;15.40;;;5.33;;
3941;SDS011;1985;48.592;8.850;2022-12-07T04:49:22;18.92;;;6.00;;
3941;SDS011;1985;48.592;8.850;2022-12-07T04:51:48;16.92;;;5.68;;
3941;SDS011;1985;48.592;8.850;2022-12-07T04:54:15;13.90;;;5.72;;
3941;SDS011;1985;48.592;8.850;2022-12-07T04:56:41;15.80;;;5.65;;
3941;SDS011;1985;48.592;8.850;2022-12-07T04:59:08;19.75;;;6.75;;
3941;SDS011;1985;48.592;8.850;2022-12-07T05:01:35;21.38;;;6.60;;
3941;SDS011;1985;48.592;8.850;2022-12-07T05:04:01;15.27;;;4.90;;
3941;SDS011;1985;48.592;8.850;2022-12-07T05:06:27;14.87;;;5.07;;
3941;SDS011;1985;48.592;8.850;2022-12-07T05:08:52;17.83;;;6.47;;
3941;SDS011;1985;48.592;8.850;2022-12-07T05:11:18;15.10;;;5.60;;
3941;SDS011;1985;48.592;8.850;2022-12-07T05:14:03;16.35;;;6.05;;
3941;SDS011;1985;48.592;8.850;2022-12-07T05:16:39;19.30;;;6.00;;
3941;SDS011;1985;48.592;8.850;2022-12-07T05:19:06;16.95;;;5.75;;
3941;SDS011;1985;48.592;8.850;2022-12-07T05:21:32;16.65;;;5.28;;
3941;SDS011;1985;48.592;8.850;2022-12-07T05:23:58;17.42;;;5.10;;
3941;SDS011;1985;48.592;8.850;2022-12-07T05:26:24;15.00;;;5.20;;
3941;SDS011;1985;48.592;8.850;2022-12-07T05:28:53;14.93;;;5.10;;
3941;SDS011;1985;48.592;8.850;2022-12-07T05:31:20;17.40;;;5.32;;
3941;SDS011;1985;48.592;8.850;2022-12-07T05:33:47;14.95;;;4.93;;
3941;SDS011;1985;48.592;8.850;2022-12-07T05:36:12;16.73;;;5.20;;
3941;SDS011;1985;48.592;8.850;2022-12-07T05:38:38;15.60;;;4.50;;
3941;SDS011;1985;48.592;8.850;2022-12-07T05:41:05;18.77;;;5.10;;
3941;SDS011;1985;48.592;8.850;2022-12-07T05:43:32;15.15;;;4.72;;
3941;SDS011;1985;48.592;8.850;2022-12-07T05:45:58;16.73;;;4.87;;
3941;SDS011;1985;48.592;8.850;2022-12-07T05:48:23;17.58;;;5.20;;
3941;SDS011;1985;48.592;8.850;2022-12-07T05:50:50;14.23;;;4.88;;
3941;SDS011;1985;48.592;8.850;2022-12-07T05:53:17;19.17;;;6.10;;
3941;SDS011;1985;48.592;8.850;2022-12-07T05:55:43;15.55;;;4.75;;
3941;SDS011;1985;48.592;8.850;2022-12-07T05:58:08;17.95;;;4.88;;
3941;SDS011;1985;48.592;8.850;2022-12-07T06:00:54;18.35;;;5.82;;
3941;SDS011;1985;48.592;8.850;2022-12-07T06:03:20;15.10;;;5.10;;
3941;SDS011;1985;48.592;8.850;2022-12-07T06:05:46;16.30;;;6.00;;
3941;SDS011;1985;48.592;8.850;2022-12-07T06:08:12;14.52;;;4.90;;
3941;SDS011;1985;48.592;8.850;2022-12-07T06:10:39;14.10;;;5.07;;
3941;SDS011;1985;48.592;8.850;2022-12-07T06:13:06;14.23;;;4.80;;
3941;SDS011;1985;48.592;8.850;2022-12-07T06:15:32;16.67;;;5.30;;
3941;SDS011;1985;48.592;8.850;2022-12-07T06:18:00;14.40;;;4.93;;
3941;SDS011;1985;48.592;8.850;2022-12-07T06:20:26;16.50;;;5.20;;
3941;SDS011;1985;48.592;8.850;2022-12-07T06:22:51;16.20;;;5.50;;
3941;SDS011;1985;48.592;8.850;2022-12-07T06:25:17;15.27;;;5.50;;
3941;SDS011;1985;48.592;8.850;2022-12-07T06:27:42;16.13;;;5.50;;
3941;SDS011;1985;48.592;8.850;2022-12-07T06:30:08;14.95;;;4.95;;
3941;SDS011;1985;48.592;8.850;2022-12-07T06:32:35;15.20;;;5.00;;
3941;SDS011;1985;48.592;8.850;2022-12-07T06:35:02;18.70;;;5.53;;
3941;SDS011;1985;48.592;8.850;2022-12-07T06:37:28;19.27;;;5.68;;
3941;SDS011;1985;48.592;8.850;2022-12-07T06:39:54;16.77;;;4.80;;
3941;SDS011;1985;48.592;8.850;2022-12-07T06:42:19;13.60;;;4.30;;
3941;SDS011;1985;48.592;8.850;2022-12-07T06:44:45;12.88;;;4.35;;
3941;SDS011;1985;48.592;8.850;2022-12-07T06:47:10;12.83;;;4.30;;
3941;SDS011;1985;48.592;8.850;2022-12-07T06:49:36;13.90;;;4.60;;
3941;SDS011;1985;48.592;8.850;2022-12-07T06:52:02;13.23;;;4.55;;
3941;SDS011;1985;48.592;8.850;2022-12-07T06:54:29;15.63;;;4.35;;
3941;SDS011;1985;48.592;8.850;2022-12-07T06:56:55;13.80;;;4.23;;
3941;SDS011;1985;48.592;8.850;2022-12-07T06:59:21;12.45;;;3.70;;
3941;SDS011;1985;48.592;8.850;2022-12-07T07:01:46;16.88;;;4.50;;
3941;SDS011;1985;48.592;8.850;2022-12-07T07:04:12;21.00;;;5.97;;
3941;SDS011;1985;48.592;8.850;2022-12-07T07:06:38;42.70;;;13.00;;
3941;SDS011;1985;48.592;8.850;2022-12-07T07:09:03;20.55;;;7.10;;
3941;SDS011;1985;48.592;8.850;2022-12-07T07:11:29;16.23;;;5.53;;
3941;SDS011;1985;48.592;8.850;2022-12-07T07:13:54;18.80;;;5.40;;
3941;SDS011;1985;48.592;8.850;2022-12-07T07:16:22;15.25;;;4.90;;
3941;SDS011;1985;48.592;8.850;2022-12-07T07:18:48;14.95;;;5.05;;
3941;SDS011;1985;48.592;8.850;2022-12-07T07:21:14;15.77;;;4.50;;
3941;SDS011;1985;48.592;8.850;2022-12-07T07:23:39;14.77;;;5.23;;
3941;SDS011;1985;48.592;8.850;2022-12-07T07:26:05;16.40;;;4.90;;
3941;SDS011;1985;48.592;8.850;2022-12-07T07:28:31;14.47;;;4.87;;
3941;SDS011;1985;48.592;8.850;2022-12-07T07:30:56;16.37;;;5.20;;
3941;SDS011;1985;48.592;8.850;2022-12-07T07:33:22;15.77;;;5.25;;
3941;SDS011;1985;48.592;8.850;2022-12-07T07:35:47;14.53;;;5.40;;
3941;SDS011;1985;48.592;8.850;2022-12-07T07:38:13;16.25;;;5.57;;
3941;SDS011;1985;48.592;8.850;2022-12-07T07:40:39;17.92;;;5.80;;
3941;SDS011;1985;48.592;8.850;2022-12-07T07:43:04;15.47;;;5.43;;
3941;SDS011;1985;48.592;8.850;2022-12-07T07:45:30;14.77;;;4.90;;
3941;SDS011;1985;48.592;8.850;2022-12-07T07:47:56;19.17;;;5.32;;
3941;SDS011;1985;48.592;8.850;2022-12-07T07:50:21;18.42;;;5.90;;
3941;SDS011;1985;48.592;8.850;2022-12-07T07:52:47;17.33;;;6.13;;
3941;SDS011;1985;48.592;8.850;2022-12-07T07:55:13;16.73;;;5.63;;
3941;SDS011;1985;48.592;8.850;2022-12-07T07:57:39;16.63;;;5.65;;
3941;SDS011;1985;48.592;8.850;2022-12-07T08:00:06;16.65;;;5.82;;
3941;SDS011;1985;48.592;8.850;2022-12-07T08:02:33;16.73;;;5.40;;
3941;SDS011;1985;48.592;8.850;2022-12-07T08:04:59;16.05;;;5.68;;
3941;SDS011;1985;48.592;8.850;2022-12-07T08:07:25;15.70;;;5.53;;
3941;SDS011;1985;48.592;8.850;2022-12-07T08:09:52;15.90;;;5.90;;
3941;SDS011;1985;48.592;8.850;2022-12-07T08:12:18;14.82;;;5.80;;
3941;SDS011;1985;48.592;8.850;2022-12-07T08:14:44;14.10;;;5.07;;
3941;SDS011;1985;48.592;8.850;2022-12-07T08:17:09;15.63;;;5.45;;
3941;SDS011;1985;48.592;8.850;2022-12-07T08:19:35;17.88;;;4.85;;
3941;SDS011;1985;48.592;8.850;2022-12-07T08:22:00;18.50;;;4.97;;
3941;SDS011;1985;48.592;8.850;2022-12-07T08:24:26;13.40;;;4.50;;
3941;SDS011;1985;48.592;8.850;2022-12-07T08:26:52;12.87;;;4.60;;
3941;SDS011;1985;48.592;8.850;2022-12-07T08:29:18;15.48;;;4.80;;
3941;SDS011;1985;48.592;8.850;2022-12-07T08:31:44;14.10;;;5.05;;
3941;SDS011;1985;48.592;8.850;2022-12-07T08:34:10;33.30;;;14.32;;
3941;SDS011;1985;48.592;8.850;2022-12-07T08:36:36;16.65;;;5.35;;
3941;SDS011;1985;48.592;8.850;2022-12-07T08:39:02;16.52;;;5.00;;
3941;SDS011;1985;48.592;8.850;2022-12-07T08:41:28;12.53;;;4.27;;
3941;SDS011;1985;48.592;8.850;2022-12-07T08:43:54;13.53;;;4.33;;
3941;SDS011;1985;48.592;8.850;2022-12-07T08:51:23;12.85;;;4.60;;
3941;SDS011;1985;48.592;8.850;2022-12-07T08:53:49;16.95;;;4.70;;
3941;SDS011;1985;48.592;8.850;2022-12-07T08:56:17;13.70;;;4.35;;
3941;SDS011;1985;48.592;8.850;2022-12-07T08:58:43;12.45;;;3.97;;
3941;SDS011;1985;48.592;8.850;2022-12-07T09:01:09;14.80;;;4.53;;
3941;SDS011;1985;48.592;8.850;2022-12-07T09:03:35;15.10;;;4.60;;
3941;SDS011;1985;48.592;8.850;2022-12-07T09:06:00;14.82;;;4.70;;
3941;SDS011;1985;48.592;8.850;2022-12-07T09:08:28;11.70;;;3.53;;
3941;SDS011;1985;48.592;8.850;2022-12-07T09:11:05;13.27;;;3.78;;
3941;SDS011;1985;48.592;8.850;2022-12-07T09:13:31;17.15;;;4.35;;
3941;SDS011;1985;48.592;8.850;2022-12-07T09:15:57;17.20;;;5.20;;
3941;SDS011;1985;48.592;8.850;2022-12-07T09:18:22;14.00;;;4.65;;
3941;SDS011;1985;48.592;8.850;2022-12-07T09:20:49;14.50;;;5.07;;
3941;SDS011;1985;48.592;8.850;2022-12-07T09:23:14;23.50;;;6.80;;
3941;SDS011;1985;48.592;8.850;2022-12-07T09:25:40;12.98;;;3.80;;
3941;SDS011;1985;48.592;8.850;2022-12-07T09:28:06;13.37;;;4.40;;
3941;SDS011;1985;48.592;8.850;2022-12-07T09:30:31;14.83;;;4.73;;
3941;SDS011;1985;48.592;8.850;2022-12-07T09:32:57;14.07;;;4.75;;
3941;SDS011;1985;48.592;8.850;2022-12-07T09:35:25;15.40;;;4.90;;
3941;SDS011;1985;48.592;8.850;2022-12-07T09:37:51;15.95;;;6.05;;
3941;SDS011;1985;48.592;8.850;2022-12-07T09:40:16;15.82;;;5.43;;
3941;SDS011;1985;48.592;8.850;2022-12-07T09:42:45;15.45;;;4.43;;
3941;SDS011;1985;48.592;8.850;2022-12-07T09:45:24;19.52;;;8.05;;
3941;SDS011;1985;48.592;8.850;2022-12-07T09:47:51;23.95;;;8.75;;
3941;SDS011;1985;48.592;8.850;2022-12-07T09:50:19;17.00;;;5.93;;
3941;SDS011;1985;48.592;8.850;2022-12-07T09:52:47;14.73;;;4.70;;
3941;SDS011;1985;48.592;8.850;2022-12-07T09:55:16;15.48;;;4.30;;
3941;SDS011;1985;48.592;8.850;2022-12-07T09:57:46;12.40;;;4.00;;
3941;SDS011;1985;48.592;8.850;2022-12-07T10:00:16;13.23;;;4.28;;
3941;SDS011;1985;48.592;8.850;2022-12-07T10:02:46;13.50;;;4.53;;
3941;SDS011;1985;48.592;8.850;2022-12-07T10:05:21;13.80;;;4.28;;
3941;SDS011;1985;48.592;8.850;2022-12-07T10:08:07;15.80;;;4.40;;
3941;SDS011;1985;48.592;8.850;2022-12-07T10:10:37;11.52;;;3.83;;
3941;SDS011;1985;48.592;8.850;2022-12-07T10:13:14;15.05;;;4.85;;
3941;SDS011;1985;48.592;8.850;2022-12-07T10:18:18;13.35;;;4.30;;
3941;SDS011;1985;48.592;8.850;2022-12-07T10:20:45;13.63;;;3.92;;
3941;SDS011;1985;48.592;8.850;2022-12-07T10:23:14;12.38;;;3.95;;
3941;SDS011;1985;48.592;8.850;2022-12-07T10:25:41;13.67;;;4.00;;
3941;SDS011;1985;48.592;8.850;2022-12-07T10:30:33;13.80;;;3.87;;
3941;SDS011;1985;48.592;8.850;2022-12-07T10:33:37;15.27;;;5.10;;
3941;SDS011;1985;48.592;8.850;2022-12-07T10:38:47;13.93;;;4.37;;
3941;SDS011;1985;48.592;8.850;2022-12-07T10:41:15;12.82;;;4.30;;
3941;SDS011;1985;48.592;8.850;2022-12-07T10:43:59;13.30;;;4.20;;
3941;SDS011;1985;48.592;8.850;2022-12-07T10:46:32;15.40;;;4.68;;
3941;SDS011;1985;48.592;8.850;2022-12-07T10:50:02;17.02;;;4.90;;
3941;SDS011;1985;48.592;8.850;2022-12-07T10:52:22;14.93;;;5.50;;
3941;SDS011;1985;48.592;8.850;2022-12-07T11:00:22;12.43;;;4.00;;
3941;SDS011;1985;48.592;8.850;2022-12-07T11:05:32;14.43;;;4.20;;
3941;SDS011;1985;48.592;8.850;2022-12-07T11:10:43;14.20;;;4.00;;
3941;SDS011;1985;48.592;8.850;2022-12-07T11:27:21;13.13;;;4.25;;
3941;SDS011;1985;48.592;8.850;2022-12-07T11:39:02;15.30;;;3.92;;
3941;SDS011;1985;48.592;8.850;2022-12-07T11:41:02;13.35;;;3.90;;
3941;SDS011;1985;48.592;8.850;2022-12-07T11:46:36;15.25;;;3.92;;
3941;SDS011;1985;48.592;8.850;2022-12-07T11:49:27;14.68;;;4.18;;
3941;SDS011;1985;48.592;8.850;2022-12-07T11:52:01;13.40;;;4.00;;
3941;SDS011;1985;48.592;8.850;2022-12-07T11:54:30;13.75;;;4.30;;
3941;SDS011;1985;48.592;8.850;2022-12-07T11:57:02;16.67;;;4.60;;
3941;SDS011;1985;48.592;8.850;2022-12-07T11:59:41;15.25;;;4.40;;
3941;SDS011;1985;48.592;8.850;2022-12-07T12:02:20;14.50;;;4.35;;
3941;SDS011;1985;48.592;8.850;2022-12-07T12:05:33;14.68;;;3.80;;
3941;SDS011;1985;48.592;8.850;2022-12-07T12:07:43;14.23;;;4.38;;
3941;SDS011;1985;48.592;8.850;2022-12-07T12:10:15;13.73;;;4.50;;
3941;SDS011;1985;48.592;8.850;2022-12-07T12:13:25;13.23;;;4.50;;
3941;SDS011;1985;48.592;8.850;2022-12-07T12:16:02;14.35;;;4.72;;
3941;SDS011;1985;48.592;8.850;2022-12-07T12:21:06;17.58;;;5.57;;
3941;SDS011;1985;48.592;8.850;2022-12-07T12:23:42;16.10;;;5.13;;
3941;SDS011;1985;48.592;8.850;2022-12-07T12:26:20;14.57;;;4.70;;
3941;SDS011;1985;48.592;8.850;2022-12-07T12:36:56;13.63;;;3.70;;
3941;SDS011;1985;48.592;8.850;2022-12-07T12:39:22;11.77;;;3.25;;
3941;SDS011;1985;48.592;8.850;2022-12-07T12:41:55;12.23;;;3.30;;
3941;SDS011;1985;48.592;8.850;2022-12-07T12:59:33;12.00;;;3.38;;
3941;SDS011;1985;48.592;8.850;2022-12-07T13:02:16;9.77;;;1.88;;
3941;SDS011;1985;48.592;8.850;2022-12-07T13:13:42;9.50;;;2.00;;
3941;SDS011;1985;48.592;8.850;2022-12-07T13:15:50;8.20;;;1.23;;
3941;SDS011;1985;48.592;8.850;2022-12-07T13:18:39;9.10;;;1.70;;
3941;SDS011;1985;48.592;8.850;2022-12-07T13:33:46;8.82;;;1.52;;
3941;SDS011;1985;48.592;8.850;2022-12-07T13:36:36;8.98;;;1.58;;
3941;SDS011;1985;48.592;8.850;2022-12-07T13:41:51;9.07;;;1.60;;
3941;SDS011;1985;48.592;8.850;2022-12-07T13:44:22;9.60;;;2.10;;
3941;SDS011;1985;48.592;8.850;2022-12-07T13:47:05;12.00;;;2.75;;
3941;SDS011;1985;48.592;8.850;2022-12-07T13:49:48;9.10;;;1.80;;
3941;SDS011;1985;48.592;8.850;2022-12-07T13:52:24;10.00;;;1.90;;
3941;SDS011;1985;48.592;8.850;2022-12-07T13:54:57;11.23;;;2.60;;
3941;SDS011;1985;48.592;8.850;2022-12-07T13:57:30;12.43;;;3.08;;
3941;SDS011;1985;48.592;8.850;2022-12-07T13:59:59;10.35;;;2.40;;
3941;SDS011;1985;48.592;8.850;2022-12-07T14:02:32;9.00;;;2.08;;
3941;SDS011;1985;48.592;8.850;2022-12-07T14:07:57;9.55;;;2.17;;
3941;SDS011;1985;48.592;8.850;2022-12-07T14:10:52;10.98;;;2.67;;
3941;SDS011;1985;48.592;8.850;2022-12-07T14:13:33;10.40;;;2.80;;
3941;SDS011;1985;48.592;8.850;2022-12-07T14:16:01;10.50;;;2.33;;
3941;SDS011;1985;48.592;8.850;2022-12-07T14:18:30;11.65;;;3.22;;
3941;SDS011;1985;48.592;8.850;2022-12-07T14:21:05;12.60;;;2.60;;
3941;SDS011;1985;48.592;8.850;2022-12-07T14:23:39;9.98;;;2.38;;
3941;SDS011;1985;48.592;8.850;2022-12-07T14:26:11;11.60;;;3.20;;
3941;SDS011;1985;48.592;8.850;2022-12-07T14:28:43;16.13;;;4.00;;
3941;SDS011;1985;48.592;8.850;2022-12-07T14:31:17;13.05;;;2.90;;
3941;SDS011;1985;48.592;8.850;2022-12-07T14:33:45;10.85;;;2.65;;
3941;SDS011;1985;48.592;8.850;2022-12-07T14:36:11;9.50;;;2.20;;
3941;SDS011;1985;48.592;8.850;2022-12-07T14:38:38;10.18;;;2.20;;
3941;SDS011;1985;48.592;8.850;2022-12-07T14:41:04;9.60;;;2.10;;
3941;SDS011;1985;48.592;8.850;2022-12-07T14:43:53;14.60;;;3.30;;
3941;SDS011;1985;48.592;8.850;2022-12-07T14:46:18;10.30;;;2.50;;
3941;SDS011;1985;48.592;8.850;2022-12-07T14:48:44;11.03;;;2.50;;
3941;SDS011;1985;48.592;8.850;2022-12-07T14:51:10;10.20;;;2.40;;
3941;SDS011;1985;48.592;8.850;2022-12-07T14:53:39;10.65;;;2.50;;
3941;SDS011;1985;48.592;8.850;2022-12-07T14:56:07;10.88;;;2.40;;
3941;SDS011;1985;48.592;8.850;2022-12-07T14:58:33;10.90;;;2.60;;
3941;SDS011;1985;48.592;8.850;2022-12-07T15:00:59;10.88;;;2.53;;
3941;SDS011;1985;48.592;8.850;2022-12-07T15:03:25;11.07;;;3.10;;
3941;SDS011;1985;48.592;8.850;2022-12-07T15:05:55;12.25;;;2.95;;
3941;SDS011;1985;48.592;8.850;2022-12-07T15:08:20;9.82;;;2.15;;
3941;SDS011;1985;48.592;8.850;2022-12-07T15:10:46;10.73;;;2.40;;
3941;SDS011;1985;48.592;8.850;2022-12-07T15:13:12;9.20;;;2.20;;
3941;SDS011;1985;48.592;8.850;2022-12-07T15:15:56;12.25;;;3.60;;
3941;SDS011;1985;48.592;8.850;2022-12-07T15:18:22;12.35;;;4.00;;
3941;SDS011;1985;48.592;8.850;2022-12-07T15:20:48;20.03;;;6.37;;
3941;SDS011;1985;48.592;8.850;2022-12-07T15:23:14;24.50;;;7.97;;
3941;SDS011;1985;48.592;8.850;2022-12-07T15:25:41;21.40;;;7.33;;
3941;SDS011;1985;48.592;8.850;2022-12-07T15:28:07;19.67;;;6.70;;
3941;SDS011;1985;48.592;8.850;2022-12-07T15:30:33;27.60;;;9.57;;
3941;SDS011;1985;48.592;8.850;2022-12-07T15:32:59;22.27;;;8.00;;
3941;SDS011;1985;48.592;8.850;2022-12-07T15:35:24;16.35;;;5.20;;
3941;SDS011;1985;48.592;8.850;2022-12-07T15:37:50;14.13;;;4.80;;
3941;SDS011;1985;48.592;8.850;2022-12-07T15:40:16;11.50;;;3.40;;
3941;SDS011;1985;48.592;8.850;2022-12-07T15:42:41;12.73;;;3.40;;
3941;SDS011;1985;48.592;8.850;2022-12-07T15:45:07;10.95;;;2.75;;
3941;SDS011;1985;48.592;8.850;2022-12-07T15:47:35;12.10;;;2.30;;
3941;SDS011;1985;48.592;8.850;2022-12-07T15:50:03;10.50;;;2.80;;
3941;SDS011;1985;48.592;8.850;2022-12-07T15:52:31;10.38;;;2.30;;
3941;SDS011;1985;48.592;8.850;2022-12-07T15:54:57;9.23;;;2.10;;
3941;SDS011;1985;48.592;8.850;2022-12-07T15:57:22;10.00;;;2.30;;
3941;SDS011;1985;48.592;8.850;2022-12-07T15:59:48;9.50;;;2.30;;
3941;SDS011;1985;48.592;8.850;2022-12-07T16:02:13;10.23;;;2.30;;
3941;SDS011;1985;48.592;8.850;2022-12-07T16:04:39;8.98;;;1.98;;
3941;SDS011;1985;48.592;8.850;2022-12-07T16:07:05;10.33;;;2.13;;
3941;SDS011;1985;48.592;8.850;2022-12-07T16:09:30;10.73;;;2.33;;
3941;SDS011;1985;48.592;8.850;2022-12-07T16:11:56;12.43;;;3.05;;
3941;SDS011;1985;48.592;8.850;2022-12-07T16:14:22;11.13;;;2.90;;
3941;SDS011;1985;48.592;8.850;2022-12-07T16:16:48;11.00;;;2.80;;
3941;SDS011;1985;48.592;8.850;2022-12-07T16:19:14;11.50;;;2.90;;
3941;SDS011;1985;48.592;8.850;2022-12-07T16:21:40;11.02;;;3.17;;
3941;SDS011;1985;48.592;8.850;2022-12-07T16:24:07;13.10;;;4.20;;
3941;SDS011;1985;48.592;8.850;2022-12-07T16:26:33;14.45;;;3.80;;
3941;SDS011;1985;48.592;8.850;2022-12-07T16:28:59;13.80;;;4.13;;
3941;SDS011;1985;48.592;8.850;2022-12-07T16:31:25;12.87;;;3.63;;
3941;SDS011;1985;48.592;8.850;2022-12-07T16:33:52;15.07;;;4.00;;
3941;SDS011;1985;48.592;8.850;2022-12-07T16:36:19;12.52;;;3.60;;
3941;SDS011;1985;48.592;8.850;2022-12-07T16:38:47;14.25;;;3.83;;
3941;SDS011;1985;48.592;8.850;2022-12-07T16:41:13;13.13;;;4.15;;
3941;SDS011;1985;48.592;8.850;2022-12-07T16:43:39;11.45;;;3.10;;
3941;SDS011;1985;48.592;8.850;2022-12-07T16:46:05;12.40;;;4.00;;
3941;SDS011;1985;48.592;8.850;2022-12-07T16:48:31;12.07;;;3.40;;
3941;SDS011;1985;48.592;8.850;2022-12-07T16:51:02;10.70;;;2.83;;
3941;SDS011;1985;48.592;8.850;2022-12-07T16:53:29;11.90;;;3.10;;
3941;SDS011;1985;48.592;8.850;2022-12-07T16:55:54;12.57;;;3.17;;
3941;SDS011;1985;48.592;8.850;2022-12-07T16:58:20;10.93;;;2.77;;
3941;SDS011;1985;48.592;8.850;2022-12-07T17:00:45;11.40;;;3.00;;
3941;SDS011;1985;48.592;8.850;2022-12-07T17:03:11;13.77;;;3.30;;
3941;SDS011;1985;48.592;8.850;2022-12-07T17:05:38;10.60;;;2.80;;
3941;SDS011;1985;48.592;8.850;2022-12-07T17:08:05;10.93;;;2.50;;
3941;SDS011;1985;48.592;8.850;2022-12-07T17:10:31;10.63;;;2.70;;
3941;SDS011;1985;48.592;8.850;2022-12-07T17:13:00;12.23;;;3.47;;
3941;SDS011;1985;48.592;8.850;2022-12-07T17:15:26;13.35;;;3.63;;
3941;SDS011;1985;48.592;8.850;2022-12-07T17:17:54;13.10;;;3.60;;
3941;SDS011;1985;48.592;8.850;2022-12-07T17:20:22;12.57;;;3.85;;
3941;SDS011;1985;48.592;8.850;2022-12-07T17:22:48;11.95;;;3.38;;
3941;SDS011;1985;48.592;8.850;2022-12-07T17:25:15;14.57;;;4.15;;
3941;SDS011;1985;48.592;8.850;2022-12-07T17:27:41;11.60;;;3.55;;
3941;SDS011;1985;48.592;8.850;2022-12-07T17:30:07;11.70;;;3.22;;
3941;SDS011;1985;48.592;8.850;2022-12-07T17:32:33;14.98;;;4.15;;